Time;durP1;ratioP1;P1;durP2;ratioP2;P2;SDS_P1;SDS_P2;PMS_P1;PMS_P2;Temp;Humidity;BMP_temperature;BMP_pressure;BME280_temperature;BME280_humidity;BME280_pressure;Samples;Min_cycle;Max_cycle;Signal;HPM_P1;HPM_P2
2023/05/02 00:03:38;;;;;;;32.65;21.80;;;;;;;8.89;92.46;98014.63;10364066;28;20120;-51
2023/05/02 00:08:37;;;;;;;37.03;22.92;;;;;;;8.86;91.95;98024.94;10364624;28;20025;-51
2023/05/02 00:13:36;;;;;;;31.67;21.17;;;;;;;8.71;93.05;98024.78;10363296;28;20586;-51
2023/05/02 00:18:35;;;;;;;31.70;20.50;;;;;;;8.65;93.18;98014.38;10364669;28;20925;-50
2023/05/02 00:23:34;;;;;;;41.20;22.63;;;;;;;8.64;93.06;98022.97;10363831;28;20490;-50
2023/05/02 00:28:32;;;;;;;37.55;24.02;;;;;;;8.59;93.60;98029.81;10363655;28;20426;-51
2023/05/02 00:33:31;;;;;;;37.70;25.30;;;;;;;8.24;94.63;98015.63;10363228;28;20112;-51
2023/05/02 00:38:30;;;;;;;34.28;22.83;;;;;;;8.38;94.54;98035.59;10363207;28;20033;-51
2023/05/02 00:43:30;;;;;;;34.38;21.27;;;;;;;8.40;93.78;98045.13;10362807;28;20572;-49
2023/05/02 00:48:29;;;;;;;30.42;21.48;;;;;;;8.31;93.89;98039.84;10366621;28;20534;-51
2023/05/02 00:53:28;;;;;;;36.40;21.55;;;;;;;8.31;93.28;98050.19;10365141;28;20073;-51
2023/05/02 00:58:29;;;;;;;30.50;20.17;;;;;;;8.20;93.49;98042.31;10365757;28;20043;-51
2023/05/02 01:03:40;;;;;;;31.63;19.98;;;;;;;8.19;94.48;98050.03;10366021;28;20081;-51
2023/05/02 01:08:49;;;;;;;31.10;20.48;;;;;;;7.86;94.45;97991.88;10366021;28;20079;-51
2023/05/02 01:13:51;;;;;;;28.80;19.40;;;;;;;8.15;93.95;98035.31;10364456;28;20499;-51
2023/05/02 01:18:51;;;;;;;28.70;19.30;;;;;;;8.13;93.55;98037.00;10366224;28;20179;-50
2023/05/02 01:23:59;;;;;;;35.50;21.58;;;;;;;8.10;93.90;98035.25;10364397;28;20107;-51
2023/05/02 01:29:00;;;;;;;37.20;23.00;;;;;;;7.91;94.12;98022.94;10364234;28;20060;-51
2023/05/02 01:34:01;;;;;;;37.42;23.30;;;;;;;7.95;94.27;98038.50;10364417;28;20076;-49
2023/05/02 01:39:01;;;;;;;43.40;25.73;;;;;;;7.87;95.05;98032.34;10364641;28;20076;-49
2023/05/02 01:44:01;;;;;;;39.58;23.75;;;;;;;7.85;94.86;98034.06;10363546;28;20064;-51
2023/05/02 01:49:03;;;;;;;35.22;21.20;;;;;;;7.71;94.71;98039.03;10360714;28;20068;-49
2023/05/02 01:54:07;;;;;;;38.33;21.23;;;;;;;7.73;94.92;98044.19;10360130;28;20132;-50
2023/05/02 01:59:17;;;;;;;37.05;24.08;;;;;;;7.56;95.89;98039.66;10359859;28;20068;-50
2023/05/02 02:04:18;;;;;;;38.50;21.98;;;;;;;7.52;95.63;98043.06;10360026;28;20068;-50
2023/05/02 02:09:17;;;;;;;39.30;22.17;;;;;;;7.52;94.99;98037.88;10360484;28;20064;-51
2023/05/02 02:14:20;;;;;;;32.92;21.33;;;;;;;7.41;95.41;98045.44;10359414;28;20128;-49
2023/05/02 02:19:20;;;;;;;36.05;21.98;;;;;;;7.18;96.21;98019.22;10359802;28;20068;-49
2023/05/02 02:24:21;;;;;;;36.72;23.95;;;;;;;7.35;95.45;98040.13;10360572;28;20385;-49
2023/05/02 02:29:20;;;;;;;40.25;22.70;;;;;;;7.29;97.27;98037.47;10360441;28;20550;-51
2023/05/02 02:34:20;;;;;;;34.85;22.40;;;;;;;7.29;96.66;98026.25;10359380;28;20710;-51
2023/05/02 02:39:42;;;;;;;39.65;22.83;;;;;;;7.25;96.27;98015.03;10365526;28;20064;-51
2023/05/02 02:45:11;;;;;;;36.17;21.67;;;;;;;7.20;97.80;98021.84;10367271;28;20076;-51
2023/05/02 02:50:31;;;;;;;38.58;23.10;;;;;;;6.69;97.60;97941.00;10366891;28;20124;-51
2023/05/02 02:55:57;;;;;;;42.15;26.30;;;;;;;7.25;98.17;98033.09;10367671;28;20103;-49
2023/05/02 03:00:59;;;;;;;52.17;29.88;;;;;;;7.13;97.98;98007.97;10367270;28;20079;-50
2023/05/02 03:05:59;;;;;;;46.33;28.17;;;;;;;7.33;98.06;98028.06;10366206;28;20111;-51
2023/05/02 03:10:58;;;;;;;45.75;27.15;;;;;;;7.34;97.13;98041.00;10366178;28;20552;-50
2023/05/02 03:16:24;;;;;;;48.17;29.33;;;;;;;7.31;97.69;98046.13;10366463;28;20096;-51
2023/05/02 03:21:23;;;;;;;48.08;28.08;;;;;;;7.32;97.33;98044.41;10366733;28;20467;-50
2023/05/02 03:26:22;;;;;;;49.90;30.55;;;;;;;7.25;97.12;98057.19;10366647;28;20538;-51
2023/05/02 03:31:22;;;;;;;43.13;28.25;;;;;;;7.17;95.62;98056.22;10365877;28;20132;-51
2023/05/02 03:36:21;;;;;;;47.63;27.95;;;;;;;6.99;95.70;98058.47;10365631;28;20057;-51
2023/05/02 03:41:20;;;;;;;43.63;27.02;;;;;;;7.01;95.95;98056.78;10366474;28;20512;-51
2023/05/02 03:46:18;;;;;;;48.28;28.08;;;;;;;6.85;95.95;98054.78;10368280;28;20537;-49
2023/05/02 03:51:17;;;;;;;44.75;26.27;;;;;;;6.98;95.25;98062.75;10367047;28;20522;-50
2023/05/02 03:56:21;;;;;;;43.45;26.67;;;;;;;7.11;95.76;98058.69;10367755;28;20481;-49
2023/05/02 04:01:20;;;;;;;43.13;26.50;;;;;;;7.22;95.36;98066.63;10368213;28;20056;-51
2023/05/02 04:06:19;;;;;;;52.97;31.25;;;;;;;7.22;95.80;98052.00;10368087;28;20048;-51
2023/05/02 04:11:18;;;;;;;52.40;31.90;;;;;;;7.33;96.63;98064.19;10367406;28;20076;-51
2023/05/02 04:16:17;;;;;;;52.22;33.25;;;;;;;7.38;96.48;98052.22;10367801;28;20031;-52
2023/05/02 04:21:15;;;;;;;57.78;36.33;;;;;;;7.49;96.05;98053.31;10367128;28;20112;-48
2023/05/02 04:26:15;;;;;;;60.35;37.15;;;;;;;7.54;95.54;98019.81;10367083;28;20037;-51
2023/05/02 04:31:14;;;;;;;61.53;39.22;;;;;;;8.00;95.42;98067.88;10367705;28;20068;-50
2023/05/02 04:36:13;;;;;;;65.13;39.15;;;;;;;8.01;95.19;98056.69;10366193;28;20447;-50
2023/05/02 04:41:13;;;;;;;64.78;41.10;;;;;;;8.08;95.25;98037.84;10366227;28;20064;-51
2023/05/02 04:46:12;;;;;;;60.53;41.55;;;;;;;8.28;94.50;98050.16;10364277;28;20064;-52
2023/05/02 04:51:12;;;;;;;64.05;42.13;;;;;;;8.56;94.56;98072.03;10358259;28;20041;-51
2023/05/02 04:56:11;;;;;;;53.03;37.05;;;;;;;8.75;93.97;98065.38;10361131;28;20083;-52
2023/05/02 05:01:10;;;;;;;52.72;37.58;;;;;;;8.87;93.71;98051.69;10360740;28;20431;-51
2023/05/02 05:06:09;;;;;;;50.90;33.75;;;;;;;9.14;93.75;98067.50;10360872;28;20267;-48
2023/05/02 05:11:08;;;;;;;50.15;34.10;;;;;;;9.46;91.79;98069.53;10361213;28;20124;-50
2023/05/02 05:16:07;;;;;;;44.42;31.40;;;;;;;9.63;92.15;98072.28;10360812;28;20035;-51
2023/05/02 05:21:08;;;;;;;35.13;25.92;;;;;;;9.84;91.16;98073.28;10360813;28;20317;-51
2023/05/02 05:26:12;;;;;;;39.20;27.20;;;;;;;9.97;90.96;98070.78;10361029;28;20502;-49
2023/05/02 05:31:12;;;;;;;40.20;26.85;;;;;;;10.05;89.89;98065.66;10360859;28;20128;-51
2023/05/02 05:36:13;;;;;;;37.63;27.08;;;;;;;10.19;90.29;98061.41;10361255;28;20072;-51
2023/05/02 05:41:12;;;;;;;20.48;16.55;;;;;;;10.46;89.02;98069.31;10361401;28;20072;-51
2023/05/02 05:46:11;;;;;;;20.30;14.63;;;;;;;10.73;88.11;98084.13;10359907;28;20060;-50
2023/05/02 05:51:10;;;;;;;17.17;13.15;;;;;;;10.79;86.77;98081.56;10359313;28;20128;-51
2023/05/02 05:56:12;;;;;;;16.25;13.65;;;;;;;10.96;86.79;98074.75;10359383;28;20098;-51
2023/05/02 06:01:11;;;;;;;16.05;12.50;;;;;;;11.23;86.81;98071.31;10357367;28;20107;-51
2023/05/02 06:06:10;;;;;;;17.70;12.65;;;;;;;11.33;85.66;98067.00;10358251;28;20072;-51
2023/05/02 06:11:10;;;;;;;17.88;12.60;;;;;;;11.79;84.91;98080.00;10363445;28;20033;-52
2023/05/02 06:16:09;;;;;;;16.67;11.93;;;;;;;12.20;82.95;98076.44;10372785;28;20080;-51
2023/05/02 06:21:08;;;;;;;16.20;12.10;;;;;;;12.47;81.66;98074.69;10374583;28;20036;-51
2023/05/02 06:26:08;;;;;;;13.57;10.27;;;;;;;12.72;80.69;98075.47;10374838;28;20119;-51
2023/05/02 06:31:07;;;;;;;12.52;9.23;;;;;;;13.01;77.30;98070.09;10376344;28;20127;-51
2023/05/02 06:36:06;;;;;;;;;;;;;;;13.21;77.80;98063.88;10376950;28;20028;-52
2023/05/02 06:41:05;;;;;;;13.10;9.23;;;;;;;13.56;76.01;98061.94;10375451;28;19922;-51
2023/05/02 06:46:04;;;;;;;11.38;9.20;;;;;;;13.91;74.94;98057.28;10368401;28;20525;-52
2023/05/02 06:51:03;;;;;;;;;;;;;;;14.19;74.60;98065.69;10371298;28;20045;-52
2023/05/02 06:56:02;;;;;;;14.38;11.02;;;;;;;13.89;72.33;97950.34;10370699;28;19921;-52
2023/05/02 07:01:01;;;;;;;;;;;;;;;14.72;71.78;98056.41;10376804;28;20135;-52
2023/05/02 07:06:00;;;;;;;12.30;9.40;;;;;;;15.27;66.38;98057.38;10375762;28;19927;-52
2023/05/02 07:11:01;;;;;;;13.98;8.75;;;;;;;15.68;60.97;98053.25;10371589;28;20107;-51
2023/05/02 07:16:00;;;;;;;6.57;3.83;;;;;;;16.00;52.29;98054.50;10368414;28;20127;-52
2023/05/02 07:21:00;;;;;;;4.75;3.50;;;;;;;16.49;48.20;98051.81;10374248;28;20639;-52
2023/05/02 07:25:59;;;;;;;5.80;3.83;;;;;;;17.01;48.77;98042.03;10366440;28;20072;-52
2023/05/02 07:30:58;;;;;;;5.65;4.15;;;;;;;17.34;46.67;98037.75;10368394;28;20132;-52
2023/05/02 07:35:57;;;;;;;6.15;3.63;;;;;;;17.44;42.58;98040.16;10370379;28;20037;-52
2023/05/02 07:40:59;;;;;;;7.93;3.53;;;;;;;17.48;42.66;97995.44;10369982;28;20570;-52
2023/05/02 07:46:03;;;;;;;6.20;3.72;;;;;;;17.74;42.43;98000.03;10367355;28;20091;-52
2023/05/02 07:51:09;;;;;;;6.25;3.30;;;;;;;18.13;41.42;98041.06;10369464;28;20097;-53
2023/05/02 07:56:08;;;;;;;7.10;3.08;;;;;;;18.34;41.03;98052.78;10368156;28;20094;-53
2023/05/02 08:01:07;;;;;;;8.63;2.88;;;;;;;18.61;38.20;98036.19;10368477;28;20067;-51
2023/05/02 08:06:06;;;;;;;5.70;2.70;;;;;;;18.78;39.77;98033.13;10369307;28;20076;-52
2023/05/02 08:11:05;;;;;;;6.75;2.88;;;;;;;18.94;39.93;98033.50;10367235;28;20049;-52
2023/05/02 08:16:05;;;;;;;5.70;2.75;;;;;;;19.10;38.98;98040.94;10366278;28;20068;-53
2023/05/02 08:21:04;;;;;;;5.70;2.70;;;;;;;19.02;36.20;98026.25;10368992;28;20060;-53
2023/05/02 08:26:03;;;;;;;6.75;2.85;;;;;;;19.19;38.61;98038.03;10367110;28;20510;-53
2023/05/02 08:31:02;;;;;;;5.22;2.60;;;;;;;19.26;36.30;98034.31;10366837;28;20065;-53
2023/05/02 08:36:10;;;;;;;7.85;2.63;;;;;;;19.34;36.46;98032.28;10367481;28;20029;-54
2023/05/02 08:41:16;;;;;;;3.80;2.50;;;;;;;19.33;35.55;98033.19;10367389;28;20116;-53
2023/05/02 08:46:16;;;;;;;5.10;2.63;;;;;;;19.53;34.74;98021.16;10367189;28;20119;-53
2023/05/02 08:51:17;;;;;;;6.25;2.90;;;;;;;19.71;34.19;98023.22;10365759;28;20137;-54
2023/05/02 08:56:15;;;;;;;4.50;2.60;;;;;;;19.63;34.46;98014.72;10367871;28;20124;-53
2023/05/02 09:01:16;;;;;;;7.03;2.53;;;;;;;19.85;33.75;98013.06;10366863;28;20111;-54
2023/05/02 09:06:18;;;;;;;20.52;3.47;;;;;;;20.08;34.32;98017.53;10366043;28;20072;-54
2023/05/02 09:11:18;;;;;;;10.73;3.20;;;;;;;20.20;33.97;98013.59;10366195;28;20135;-53
2023/05/02 09:16:24;;;;;;;9.07;2.80;;;;;;;20.48;34.91;98005.59;10365761;28;20067;-54
2023/05/02 09:21:25;;;;;;;7.93;2.85;;;;;;;20.40;33.59;97983.06;10365904;28;20061;-54
2023/05/02 09:26:31;;;;;;;5.63;2.90;;;;;;;20.71;33.46;98007.38;10365894;28;20056;-54
2023/05/02 09:31:38;;;;;;;5.53;2.90;;;;;;;20.74;33.64;98000.25;10365452;28;20140;-53
2023/05/02 09:36:43;;;;;;;15.40;5.18;;;;;;;20.27;33.70;97937.81;10366771;28;20084;-54
2023/05/02 09:41:44;;;;;;;9.68;2.72;;;;;;;20.84;32.95;98002.47;10365279;28;20124;-54
2023/05/02 09:46:47;;;;;;;5.78;2.70;;;;;;;21.10;32.66;97992.69;10363840;28;20549;-54
2023/05/02 09:51:47;;;;;;;3.78;2.63;;;;;;;21.09;31.68;97991.81;10363485;28;20115;-54
2023/05/02 09:56:56;;;;;;;7.63;2.20;;;;;;;21.12;33.01;97986.44;10364540;28;20087;-54
2023/05/02 10:01:56;;;;;;;4.28;2.20;;;;;;;21.19;32.11;97981.75;10360103;28;20104;-54
2023/05/02 10:06:56;;;;;;;5.03;2.35;;;;;;;21.30;30.75;97976.09;10363683;28;20071;-54
2023/05/02 10:11:55;;;;;;;6.07;2.15;;;;;;;20.92;31.22;97910.72;10363196;28;20120;-54
2023/05/02 10:17:18;;;;;;;3.30;2.10;;;;;;;21.50;30.46;97959.41;10363906;28;20075;-54
2023/05/02 10:22:18;;;;;;;2.30;2.10;;;;;;;21.76;30.38;97971.53;10362644;28;20079;-54
2023/05/02 10:27:18;;;;;;;4.45;2.35;;;;;;;21.91;30.09;97962.94;10362984;28;20116;-54
2023/05/02 10:32:17;;;;;;;6.63;2.10;;;;;;;21.90;30.06;97948.00;10361936;28;20160;-54
2023/05/02 10:37:18;;;;;;;10.35;2.60;;;;;;;21.91;29.69;97952.34;10362126;28;20067;-54
2023/05/02 10:42:19;;;;;;;4.65;2.50;;;;;;;21.95;29.32;97927.53;10362646;28;20057;-54
2023/05/02 10:47:19;;;;;;;3.10;1.92;;;;;;;22.20;29.36;97950.25;10361810;28;20076;-54
2023/05/02 10:52:33;;;;;;;5.80;2.22;;;;;;;22.27;28.91;97940.25;10365237;28;20920;-54
2023/05/02 10:57:31;;;;;;;2.78;2.30;;;;;;;22.39;28.48;97934.44;10365112;28;20526;-54
2023/05/02 11:02:30;;;;;;;3.60;2.20;;;;;;;22.63;28.97;97937.72;10371017;28;20431;-54
2023/05/02 11:07:31;;;;;;;4.47;2.17;;;;;;;22.76;29.17;97936.25;10369206;28;20020;-54
2023/05/02 11:12:59;;;;;;;5.65;2.17;;;;;;;22.82;28.75;97948.31;10369714;28;20481;-54
2023/05/02 11:18:00;;;;;;;7.32;2.72;;;;;;;22.95;28.18;97937.97;10369119;28;20132;-54
2023/05/02 11:23:20;;;;;;;3.08;2.40;;;;;;;22.80;27.75;97937.78;10371181;28;20060;-54
2023/05/02 11:28:52;;;;;;;4.47;2.55;;;;;;;22.84;28.28;97935.88;10371125;28;20128;-54
2023/05/02 11:34:00;;;;;;;7.22;2.92;;;;;;;22.86;30.33;97925.19;10371006;28;20120;-54
2023/05/02 11:39:07;;;;;;;8.13;2.83;;;;;;;22.93;29.99;97929.28;10369778;28;20591;-54
2023/05/02 11:44:06;;;;;;;5.60;3.08;;;;;;;22.63;28.83;97857.50;10365849;28;20064;-54
2023/05/02 11:49:12;;;;;;;5.57;2.38;;;;;;;23.06;28.87;97911.84;10365108;28;20123;-54
2023/05/02 11:54:18;;;;;;;8.63;2.70;;;;;;;23.01;29.59;97903.28;10366559;28;20084;-54
2023/05/02 11:59:16;;;;;;;6.57;2.50;;;;;;;23.26;29.97;97915.31;10363236;28;20466;-54
2023/05/02 12:04:20;;;;;;;12.30;10.50;;;;;;;23.36;28.69;97896.22;10366755;28;21293;-54
2023/05/02 12:09:20;;;;;;;8.45;3.17;;;;;;;23.66;28.52;97881.53;10366853;28;20083;-54
2023/05/02 12:14:32;;;;;;;6.82;2.58;;;;;;;23.74;27.94;97889.94;10362339;28;20127;-54
2023/05/02 12:19:31;;;;;;;6.60;2.30;;;;;;;23.81;27.65;97873.63;10367220;28;20148;-54
2023/05/02 12:24:30;;;;;;;7.07;2.50;;;;;;;23.70;27.74;97883.97;10367294;28;20131;-54
2023/05/02 12:29:43;;;;;;;3.40;2.30;;;;;;;23.70;28.87;97872.47;10367382;28;20076;-54
2023/05/02 12:34:42;;;;;;;4.30;2.30;;;;;;;23.42;28.11;97845.63;10367678;28;20786;-54
2023/05/02 12:39:42;;;;;;;4.50;2.40;;;;;;;23.69;28.13;97866.31;10369511;28;20832;-54
2023/05/02 12:44:46;;;;;;;8.90;2.67;;;;;;;24.02;27.90;97850.41;10369252;28;20056;-54
2023/05/02 12:49:56;;;;;;;6.10;2.33;;;;;;;24.28;27.18;97853.47;10357030;28;20123;-54
2023/05/02 12:55:23;;;;;;;3.03;2.28;;;;;;;24.45;26.63;97844.56;10365243;28;20065;-54
2023/05/02 13:00:22;;;;;;;10.98;2.92;;;;;;;24.76;27.22;97833.09;10366212;28;20099;-54
2023/05/02 13:05:21;;;;;;;5.47;2.40;;;;;;;25.01;26.54;97818.44;10364306;28;20028;-54
2023/05/02 13:10:21;;;;;;;2.70;2.13;;;;;;;25.09;25.84;97819.69;10365031;28;20065;-54
2023/05/02 13:15:20;;;;;;;5.60;2.40;;;;;;;25.32;25.71;97814.84;10365805;28;20136;-54
2023/05/02 13:20:19;;;;;;;4.50;2.28;;;;;;;25.33;26.06;97812.06;10364538;28;20076;-54
2023/05/02 13:25:18;;;;;;;5.63;2.40;;;;;;;25.56;26.96;97801.03;10366605;28;20076;-54
2023/05/02 13:30:17;;;;;;;5.68;2.33;;;;;;;25.77;25.81;97805.03;10366069;28;20041;-54
2023/05/02 13:35:17;;;;;;;4.43;2.28;;;;;;;25.91;25.25;97806.81;10363164;28;20104;-54
2023/05/02 13:40:16;;;;;;;9.32;2.17;;;;;;;25.90;25.52;97805.09;10364824;28;20076;-54
2023/05/02 13:45:16;;;;;;;5.22;2.20;;;;;;;25.58;24.14;97804.47;10365910;28;20071;-55
2023/05/02 13:50:15;;;;;;;3.83;2.22;;;;;;;25.57;25.18;97797.41;10363341;28;20072;-53
2023/05/02 13:55:14;;;;;;;5.60;2.10;;;;;;;24.60;24.31;97689.84;10363932;28;20150;-55
2023/05/02 14:00:13;;;;;;;5.63;2.00;;;;;;;25.30;26.54;97801.63;10363653;28;20116;-53
2023/05/02 14:05:12;;;;;;;15.45;2.72;;;;;;;25.33;24.55;97795.28;10359978;28;20111;-53
2023/05/02 14:10:11;;;;;;;3.92;2.00;;;;;;;25.11;24.07;97803.69;10360722;28;20036;-53
2023/05/02 14:15:10;;;;;;;6.40;2.20;;;;;;;24.73;24.60;97795.25;10363650;28;20095;-55
2023/05/02 14:20:10;;;;;;;6.22;2.17;;;;;;;24.69;25.96;97783.97;10362414;28;20107;-55
2023/05/02 14:25:09;;;;;;;5.35;2.80;;;;;;;24.60;26.74;97789.81;10358368;28;20491;-55
2023/05/02 14:30:08;;;;;;;5.45;1.90;;;;;;;24.67;26.24;97785.88;10316531;28;20429;-53
2023/05/02 14:35:07;;;;;;;2.75;1.83;;;;;;;24.65;25.93;97777.13;10361288;28;20120;-55
2023/05/02 14:40:07;;;;;;;3.83;1.90;;;;;;;24.69;25.41;97789.28;10364688;28;20120;-53
2023/05/02 14:45:08;;;;;;;3.30;1.90;;;;;;;24.41;25.22;97776.75;10362301;28;20261;-53
2023/05/02 14:50:07;;;;;;;2.10;1.90;;;;;;;24.20;24.81;97777.00;10365310;28;20148;-53
2023/05/02 14:55:07;;;;;;;4.03;1.85;;;;;;;24.00;25.65;97798.44;10365048;28;20124;-55
2023/05/02 15:00:07;;;;;;;4.90;1.83;;;;;;;23.89;25.02;97787.53;10364776;28;20608;-53
2023/05/02 15:05:10;;;;;;;8.38;2.38;;;;;;;23.76;25.58;97787.38;10367534;28;20112;-53
2023/05/02 15:10:09;;;;;;;6.25;2.00;;;;;;;23.43;25.79;97761.72;10366169;28;20068;-53
2023/05/02 15:15:09;;;;;;;3.95;2.00;;;;;;;23.40;25.03;97783.94;10365987;28;20546;-53
2023/05/02 15:20:08;;;;;;;7.80;2.75;;;;;;;23.32;25.18;97788.75;10365677;28;20124;-54
2023/05/02 15:25:08;;;;;;;2.33;1.83;;;;;;;22.82;26.32;97730.50;10362894;28;20528;-53
2023/05/02 15:30:07;;;;;;;4.60;2.17;;;;;;;22.89;25.67;97790.09;10364011;28;20125;-53
2023/05/02 15:35:07;;;;;;;12.10;2.15;;;;;;;22.46;26.44;97777.19;10359371;28;20594;-52
2023/05/02 15:40:07;;;;;;;5.93;2.55;;;;;;;22.42;26.48;97780.91;10364739;28;20068;-53
2023/05/02 15:45:06;;;;;;;5.75;1.88;;;;;;;22.24;26.36;97782.63;10363412;28;20056;-52
2023/05/02 15:50:09;;;;;;;3.95;1.88;;;;;;;22.02;26.59;97781.97;10365182;28;20112;-52
2023/05/02 15:55:09;;;;;;;4.47;2.42;;;;;;;21.91;27.18;97785.91;10364953;28;20127;-51
2023/05/02 16:00:15;;;;;;;6.95;1.73;;;;;;;21.66;26.57;97764.19;10364294;28;20144;-52
2023/05/02 16:05:14;;;;;;;3.38;1.70;;;;;;;21.72;26.77;97787.69;10363454;28;20132;-51
2023/05/02 16:10:13;;;;;;;3.13;1.85;;;;;;;21.53;26.59;97796.44;10362425;28;20143;-51
2023/05/02 16:15:12;;;;;;;3.90;1.77;;;;;;;21.42;26.88;97797.84;10362026;28;20044;-52
2023/05/02 16:20:11;;;;;;;3.83;1.50;;;;;;;21.26;27.60;97797.66;10363898;28;20072;-52
2023/05/02 16:25:10;;;;;;;4.93;1.73;;;;;;;21.06;27.97;97786.16;10364343;28;20039;-52
2023/05/02 16:30:10;;;;;;;5.32;1.67;;;;;;;21.00;27.82;97793.47;10363526;28;20076;-51
2023/05/02 16:35:11;;;;;;;4.45;1.80;;;;;;;20.89;27.92;97796.53;10363481;28;20110;-52
2023/05/02 16:40:11;;;;;;;2.50;1.80;;;;;;;20.66;27.89;97808.06;10362982;28;20498;-53
2023/05/02 16:45:10;;;;;;;4.22;1.60;;;;;;;20.40;28.42;97809.09;10362753;28;20064;-51
2023/05/02 16:50:09;;;;;;;13.38;2.03;;;;;;;20.23;28.65;97815.84;10362295;28;20494;-54
2023/05/02 16:55:08;;;;;;;2.40;1.52;;;;;;;20.10;29.22;97832.22;10362181;28;20120;-51
2023/05/02 17:00:10;;;;;;;2.28;1.58;;;;;;;19.85;29.31;97836.63;10362127;28;20104;-51
2023/05/02 17:05:09;;;;;;;5.97;1.67;;;;;;;19.51;29.73;97846.63;10362573;28;20073;-51
2023/05/02 17:10:09;;;;;;;3.22;1.70;;;;;;;19.29;29.79;97850.00;10361181;28;20378;-51
2023/05/02 17:15:08;;;;;;;3.08;1.60;;;;;;;18.98;30.04;97858.94;10359282;28;20131;-50
2023/05/02 17:20:09;;;;;;;3.78;2.20;;;;;;;18.61;30.72;97862.72;10361486;28;20506;-51
2023/05/02 17:25:12;;;;;;;4.53;2.00;;;;;;;18.43;31.31;97865.91;10359795;28;20480;-51
2023/05/02 17:30:12;;;;;;;4.43;2.40;;;;;;;18.21;31.70;97883.25;10358906;28;20134;-51
2023/05/02 17:35:12;;;;;;;4.00;2.05;;;;;;;18.06;31.77;97881.91;10359598;28;20152;-51
2023/05/02 17:40:11;;;;;;;2.88;1.52;;;;;;;17.86;31.97;97893.00;10360963;28;20080;-49
2023/05/02 17:45:10;;;;;;;5.60;2.35;;;;;;;17.69;32.39;97899.56;10361228;28;20072;-50
2023/05/02 17:50:10;;;;;;;4.60;1.80;;;;;;;17.50;32.16;97903.59;10360707;28;20386;-50
2023/05/02 17:55:09;;;;;;;3.85;1.88;;;;;;;17.41;32.33;97904.69;10361222;28;20124;-51
2023/05/02 18:00:09;;;;;;;5.95;1.90;;;;;;;17.19;32.69;97904.38;10357867;28;20025;-51
2023/05/02 18:05:08;;;;;;;11.38;2.40;;;;;;;17.07;32.56;97912.53;10355598;28;20053;-50
2023/05/02 18:10:07;;;;;;;9.77;2.17;;;;;;;16.95;32.84;97912.84;10353405;28;20123;-51
2023/05/02 18:15:08;;;;;;;6.65;2.03;;;;;;;16.87;32.91;97916.50;10358283;28;20566;-51
2023/05/02 18:20:08;;;;;;;4.22;1.98;;;;;;;16.54;33.39;97889.28;10356641;28;20076;-53
2023/05/02 18:25:07;;;;;;;8.10;3.00;;;;;;;16.64;34.03;97926.63;10358177;28;20084;-49
2023/05/02 18:30:07;;;;;;;5.55;2.83;;;;;;;16.34;35.34;97923.78;10330364;28;20514;-51
2023/05/02 18:35:11;;;;;;;7.18;3.50;;;;;;;16.24;35.36;97927.50;10358745;28;20136;-51
2023/05/02 18:40:11;;;;;;;5.80;3.05;;;;;;;16.05;34.99;97933.09;10358790;28;20423;-50
2023/05/02 18:45:10;;;;;;;5.28;2.60;;;;;;;15.97;35.21;97924.53;10359046;28;20483;-48
2023/05/02 18:50:09;;;;;;;;;;;;;;;15.84;34.79;97934.38;10357712;28;20049;-50
2023/05/02 18:55:08;;;;;;;7.97;2.13;;;;;;;15.79;34.91;97935.38;10352751;28;19924;-49
2023/05/02 19:00:07;;;;;;;;;;;;;;;15.78;34.55;97931.00;10357588;28;20490;-50
2023/05/02 19:05:08;;;;;;;5.57;2.05;;;;;;;15.67;34.93;97923.38;10356006;28;20007;-50
2023/05/02 19:10:07;;;;;;;4.20;2.10;;;;;;;15.70;34.77;97919.81;10357451;28;20147;-51
2023/05/02 19:15:07;;;;;;;1.88;1.63;;;;;;;15.67;34.67;97921.59;10356531;28;20112;-52
2023/05/02 19:20:06;;;;;;;3.65;2.25;;;;;;;15.63;34.85;97919.94;10357426;28;20064;-51
2023/05/02 19:25:08;;;;;;;4.57;1.83;;;;;;;15.50;35.22;97881.81;10364483;28;20076;-49
2023/05/02 19:30:14;;;;;;;3.20;1.75;;;;;;;15.64;34.53;97918.16;10363296;28;20481;-51
2023/05/02 19:35:12;;;;;;;3.47;2.38;;;;;;;15.76;35.46;97932.75;10363476;28;20151;-53
2023/05/02 19:40:12;;;;;;;;;;;;;;;15.71;35.11;97932.00;10365290;28;20036;-49
2023/05/02 19:45:12;;;;;;;5.83;3.57;;;;;;;15.76;34.95;97944.09;10365463;28;20545;-48
2023/05/02 19:50:11;;;;;;;4.85;2.75;;;;;;;15.67;35.09;97937.31;10361467;28;20080;-48
2023/05/02 19:55:10;;;;;;;;;;;;;;;15.61;35.40;97931.31;10362001;28;20037;-50
2023/05/02 20:00:11;;;;;;;6.22;3.22;;;;;;;15.55;34.90;97932.31;10363948;28;19917;-50
2023/05/02 20:05:10;;;;;;;3.17;2.33;;;;;;;15.70;34.89;97928.53;10362827;28;20123;-51
2023/05/02 20:10:09;;;;;;;5.80;2.50;;;;;;;15.43;35.27;97935.09;10364461;28;20064;-53
2023/05/02 20:15:08;;;;;;;;;;;;;;;15.66;35.57;97932.94;10365758;28;20032;-50
2023/05/02 20:20:09;;;;;;;3.93;2.00;;;;;;;15.61;35.04;97936.53;10362932;28;20743;-50
2023/05/02 20:25:10;;;;;;;5.78;2.30;;;;;;;15.70;35.28;97918.06;10364575;28;20133;-50
2023/05/02 20:30:09;;;;;;;5.85;2.60;;;;;;;15.73;34.91;97915.38;10360663;28;20068;-49
2023/05/02 20:35:09;;;;;;;5.72;2.60;;;;;;;15.72;34.89;97918.03;10360808;28;20127;-48
2023/05/02 20:40:09;;;;;;;4.40;2.83;;;;;;;15.65;35.81;97930.38;10362758;28;20808;-50
2023/05/02 20:45:11;;;;;;;6.05;2.90;;;;;;;15.64;35.54;97926.00;10362748;28;20483;-51
2023/05/02 20:50:10;;;;;;;5.95;2.75;;;;;;;15.64;35.86;97934.72;10361620;28;20098;-50
2023/05/02 20:55:09;;;;;;;7.25;3.45;;;;;;;15.17;35.66;97873.69;10362899;28;20195;-51
2023/05/02 21:00:10;;;;;;;;;;;;;;;15.53;36.03;97947.16;10361921;28;20407;-51
2023/05/02 21:05:08;;;;;;;4.35;2.35;;;;;;;15.56;36.16;97944.47;10362488;28;19952;-50
2023/05/02 21:10:08;;;;;;;;;;;;;;;15.43;36.98;97933.34;10362150;28;20052;-48
2023/05/02 21:15:07;;;;;;;4.07;2.43;;;;;;;15.37;36.68;97940.47;10359592;28;19959;-50
2023/05/02 21:20:08;;;;;;;5.63;2.55;;;;;;;15.25;36.78;97941.53;10360747;28;20815;-50
2023/05/02 21:25:08;;;;;;;5.07;2.13;;;;;;;15.27;36.95;97957.19;10361502;28;20071;-51
2023/05/02 21:30:07;;;;;;;4.78;2.55;;;;;;;15.24;36.63;97971.16;10360883;28;20509;-50
2023/05/02 21:35:06;;;;;;;5.65;2.78;;;;;;;15.20;36.34;97972.09;10360000;28;20132;-50
2023/05/02 21:40:06;;;;;;;4.53;2.28;;;;;;;15.18;37.10;97953.84;10359629;28;20451;-49
2023/05/02 21:45:06;;;;;;;3.70;2.22;;;;;;;15.17;37.15;97959.94;10359979;28;20467;-50
2023/05/02 21:50:05;;;;;;;4.70;2.60;;;;;;;15.00;36.92;97934.09;10359611;28;20091;-50
2023/05/02 21:55:05;;;;;;;4.03;2.40;;;;;;;15.14;37.41;97966.97;10359886;28;20486;-50
2023/05/02 22:00:05;;;;;;;3.42;2.22;;;;;;;15.17;37.01;97977.38;10359989;28;20482;-48
2023/05/02 22:05:04;;;;;;;3.58;2.33;;;;;;;15.20;37.20;97966.88;10360773;28;20201;-49
2023/05/02 22:10:03;;;;;;;6.32;2.22;;;;;;;15.14;37.49;97974.81;10357843;28;20514;-51
2023/05/02 22:15:05;;;;;;;4.05;2.22;;;;;;;15.13;36.93;97981.81;10356205;28;20144;-50
2023/05/02 22:20:07;;;;;;;5.68;2.90;;;;;;;15.05;37.34;97975.81;10353918;28;20071;-49
2023/05/02 22:25:07;;;;;;;4.25;2.30;;;;;;;15.06;37.14;97977.56;10355557;28;20111;-49
2023/05/02 22:30:08;;;;;;;5.47;2.45;;;;;;;15.10;36.99;97978.38;10359997;28;20560;-51
2023/05/02 22:35:07;;;;;;;4.50;2.65;;;;;;;15.06;37.73;97980.19;10359095;28;20124;-49
2023/05/02 22:40:07;;;;;;;4.97;2.25;;;;;;;15.00;36.66;97972.44;10359424;28;20446;-50
2023/05/02 22:45:06;;;;;;;3.88;2.20;;;;;;;15.04;37.34;97968.88;10358016;28;20187;-51
2023/05/02 22:50:09;;;;;;;4.72;2.13;;;;;;;14.97;36.23;97975.09;10358667;28;20490;-50
2023/05/02 22:55:08;;;;;;;8.23;2.47;;;;;;;14.97;36.16;97972.47;10363810;28;20080;-50
2023/05/02 23:00:08;;;;;;;;;;;;;;;14.95;36.03;97976.88;10367583;28;20072;-50
2023/05/02 23:05:08;;;;;;;5.45;2.58;;;;;;;14.99;35.43;97962.84;10366494;28;20007;-51
2023/05/02 23:10:08;;;;;;;4.22;1.75;;;;;;;15.02;35.53;97963.66;10365731;28;20079;-51
2023/05/02 23:15:07;;;;;;;3.17;2.28;;;;;;;14.94;35.63;97962.06;10367283;28;20125;-48
2023/05/02 23:20:11;;;;;;;3.95;2.72;;;;;;;14.64;35.57;97906.75;10365768;28;20064;-50